Detall de PIREP

Printer-friendly versionPDF version

[2008/12/27 18:14:00]
Flight IATA:CT1004
Pilot Number:026
Company ICAO:CAT
Aircraft Type:B75F/E
PAX:0
Departing Airport: LEBL
Destination Airport: EDDS
Alternate Airport:LSZH
Online: VATSIM
Route:DALIN UN870 MAXIR UN853 MOLUS UN871 KUDES N851 ROMIR T125 REUTL
Flight Level:FL320
No Slew and time accel
No pause
Crash detect
Detect pilot in Cockpit between each 30 and 45 minutes
18:14 Zero fuel Weight: 232880 Lbs, Fuel Weight: 23999 Lbs
18:14 VATSIM:LEBL 271800Z 08016KT 9000 SCT015 BKN050 12/09 Q1017 NOSIG
18:14 VATSIM:EDDS 271750Z 08011KT 9999 OVC023 M02/M07 Q1030 NOSIG
18:15 VOICE CATALONIAN / X-MAS CHARTER
18:33 Parking Brakes off
18:44 Take-off
18:44 Take off Weight: 255151 Lbs
18:44 Wind: 082º @ 016 Knots Heading: 066º
18:44 POS N41º 17´ 21´´ E002º 05´ 41´´
18:44 Flaps:3 at 185 Knots
18:44 Gear Up: 189 Knots
18:44 Flaps:2 at 182 Knots
18:45 Flaps:1 at 199 Knot
s
18:45 Flaps:0 at 197 Knots
18:59 Wind:057º@025 Knots Heading: 065º Ground Speed: 424 Knots Altitude 29261 ft
19:05 TOC
19:05 Fuel Weight: 16257 Lb
19:14 Wind:040º@040 Knots Heading: 042º Ground Speed: 418 Knots Altitude 32260 ft
19:29 Wind:342º@009 Knots Heading: 025º Ground Speed: 447 Knots Altitude 32352 ft
19:44 Wind:022º@020 Knots Heading: 358º Ground Speed: 434 Knots Altitude 32303 ft
19:57 TOD
19:57 Fuel Weight: 8330 Lb
19:59 Wind:030º@036 Knots Heading: 056º Ground Speed: 377 Knots Altitude 26515 ft
20:14 Wind:088º@016 Knots Heading: 348º Ground Speed: 238 Knots Altitude 5833 ft
20:21 Flaps:1 at 198 Knots
20:21 Gear Down: 199 Knots
20:21 Flaps:2 at 199 Knots
20:22 Flaps:3 at 186 Knots
20:22 Flaps:4 at 180 Knots
20:23 Flaps:5 at 168 Knots
20:23 Flaps:6 at 156 Knots
20:23 TouchDown:Rate -553 ft/min Speed: 152 Knots
20:24 VATSIM:EDDS 271950Z 09008KT 9
999 OVC026 M02/M08 Q1030 NOSIG
20:24 Land
20:24 Wind:090º@011 Knots
20:24 Heading: 076º
20:24 Flight Duration: 01:40
20:24 Landing Weight: 238897 Lbs
20:24 POS N48º 41´ 22´´ E009º 13´ 13´´
20:31 Parking brakes on
20:31 Block to Block Duration: 01:58
20:31 Final Fuel: 5260 Lbls
20:31 Spent Fuel: 18739 Lbls
20:31 Flight Length: 622 NM
20:31 TOD Land Length: 124 NM

Exportar CSV

Powered by Drupal - Modified by Danger4k